Greenville, NC

12:38 AM EDT on May 26, 2017 (GMT -0400)
Pitt-Greenville

Weather History for KPGV - May, 2013

Change the Weather History Date:

Friday, May 3, 2013

  Actual Average Record
Temperature  
Mean Temperature 60 °F -  
Max Temperature 69 °F 77 °F 91 °F (1962)
Min Temperature 50 °F 52 °F 38 °F (1963)
Degree Days  
Heating Degree Days 6    
Growing Degree Days 10 (Base 50)    
Moisture  
Dew Point 48 °F    
Average Humidity 74    
Maximum Humidity 100    
Minimum Humidity 43    
Precipitation  
Precipitation 0.00 in - - ()
Sea Level Pressure  
Sea Level Pressure 30.24 in    
Wind  
Wind Speed 9 mph (ENE)    
Max Wind Speed 23 mph    
Max Gust Speed 30 mph    
Visibility 10 miles    
Events      
Averages and records for this station are not official NWS values.
T = Trace of Precipitation, MM = Missing Value Source: NWS Daily Summary

Daily Weather History Graph

Daily Weather History Graph

Search for Another Location

Airport or City:

Trip Planner

Search our weather history database for the weather conditions in past years. The results will help you decide how hot, cold, wet, or windy it might be!

Date:

Astronomy

May. 03, 2013 Rise Set
Actual Time 6:15 AM EDT 7:58 PM EDT
Civil Twilight 5:47 AM EDT 8:25 PM EDT
Nautical Twilight 5:14 AM EDT 8:58 PM EDT
Astronomical Twilight 4:39 AM EDT 9:34 PM EDT
Moon 2:25 AM EDT (5/3) 2:02 PM EDT (5/3)
Length of Visible Light 14h 37m
Length of Day
13h 42m
Last Quarter, 37% of the Moon is Illuminated
May 3
Last Quarter
May 9
New
May 18
First Quarter
May 25
Full
May 31
Last Quarter

Hourly Weather History & Observations

Time (EDT) Temp. Dew Point Humidity Pressure Visibility Wind Dir Wind Speed Gust Speed Precip Events Conditions
12:15 AM 53.6 °F 50.0 °F 88% 30.28 in 10.0 mi NNE 3.5 mph - N/A   Clear
12:35 AM 51.8 °F 50.0 °F 94% 30.27 in 10.0 mi NNE 4.6 mph - N/A   Clear
12:55 AM 51.8 °F 50.0 °F 94% 30.26 in 10.0 mi NNE 5.8 mph - N/A   Clear
1:15 AM 51.8 °F 50.0 °F 94% 30.25 in 10.0 mi NE 4.6 mph - N/A   Clear
1:35 AM 51.8 °F 50.0 °F 94% 30.25 in 10.0 mi NE 5.8 mph - N/A   Clear
1:55 AM 51.8 °F 50.0 °F 94% 30.24 in 10.0 mi NE 3.5 mph - N/A   Clear
2:15 AM 51.8 °F 50.0 °F 94% 30.24 in 10.0 mi NE 5.8 mph - N/A   Clear
2:35 AM 51.8 °F 50.0 °F 94% 30.23 in 10.0 mi NE 5.8 mph - N/A   Clear
2:55 AM 51.8 °F 50.0 °F 94% 30.22 in 10.0 mi NE 6.9 mph - N/A   Clear
3:15 AM 50.0 °F 50.0 °F 100% 30.22 in 10.0 mi NE 4.6 mph - N/A   Clear
3:35 AM 50.0 °F 50.0 °F 100% 30.22 in 10.0 mi NE 6.9 mph - N/A   Clear
3:55 AM 50.0 °F 50.0 °F 100% 30.21 in 10.0 mi NE 8.1 mph - N/A   Clear
4:15 AM 50.0 °F 50.0 °F 100% 30.21 in 10.0 mi NE 6.9 mph - N/A   Clear
4:35 AM 50.0 °F 50.0 °F 100% 30.21 in 10.0 mi NE 5.8 mph - N/A   Clear
4:55 AM 50.0 °F 50.0 °F 100% 30.21 in 10.0 mi NE 3.5 mph - N/A   Clear
5:15 AM 50.0 °F 50.0 °F 100% 30.22 in 10.0 mi NNE 5.8 mph - N/A   Clear
5:35 AM 50.0 °F 50.0 °F 100% 30.21 in 10.0 mi NNE 8.1 mph - N/A   Clear
5:55 AM 50.0 °F 50.0 °F 100% 30.21 in 10.0 mi NNE 8.1 mph - N/A   Clear
6:15 AM 50.0 °F 50.0 °F 100% 30.22 in 10.0 mi NE 5.8 mph - N/A   Clear
6:35 AM 50.0 °F 50.0 °F 100% 30.23 in 10.0 mi NE 8.1 mph - N/A   Scattered Clouds
6:55 AM 51.8 °F 50.0 °F 94% 30.24 in 10.0 mi NE 5.8 mph - N/A   Scattered Clouds
7:15 AM 51.8 °F 50.0 °F 94% 30.24 in 10.0 mi NE 5.8 mph - N/A   Scattered Clouds
7:35 AM 51.8 °F 50.0 °F 94% 30.24 in 10.0 mi NE 5.8 mph - N/A   Scattered Clouds
7:55 AM 53.6 °F 51.8 °F 94% 30.24 in 10.0 mi NE 8.1 mph - N/A   Mostly Cloudy
8:15 AM 53.6 °F 51.8 °F 94% 30.24 in 10.0 mi NE 10.4 mph - N/A   Overcast
8:35 AM 55.4 °F 53.6 °F 94% 30.24 in 10.0 mi ENE 8.1 mph 16.1 mph N/A   Mostly Cloudy
8:55 AM 57.2 °F 53.6 °F 88% 30.24 in 10.0 mi ENE 11.5 mph 17.3 mph N/A   Scattered Clouds
9:15 AM 59.0 °F 53.6 °F 82% 30.24 in 10.0 mi ENE 6.9 mph - N/A   Scattered Clouds
9:35 AM 60.8 °F 53.6 °F 77% 30.24 in 10.0 mi NE 9.2 mph - N/A   Clear
9:55 AM 62.6 °F 53.6 °F 72% 30.25 in 10.0 mi East 13.8 mph 20.7 mph N/A   Clear
10:15 AM 64.4 °F 53.6 °F 68% 30.25 in 10.0 mi East 15.0 mph 18.4 mph N/A   Clear
10:35 AM 64.4 °F 53.6 °F 68% 30.25 in 10.0 mi ENE 16.1 mph 25.3 mph N/A   Scattered Clouds
10:55 AM 68.0 °F 53.6 °F 60% 30.25 in 10.0 mi East 11.5 mph 26.5 mph N/A   Mostly Cloudy
11:15 AM 66.2 °F 53.6 °F 64% 30.26 in 10.0 mi ENE 15.0 mph 23.0 mph N/A   Mostly Cloudy
11:35 AM 66.2 °F 51.8 °F 60% 30.26 in 10.0 mi East 17.3 mph 23.0 mph N/A   Mostly Cloudy
11:55 AM 68.0 °F 50.0 °F 52% 30.26 in 10.0 mi ENE 23.0 mph 26.5 mph N/A   Scattered Clouds
12:15 PM 68.0 °F 50.0 °F 52% 30.26 in 10.0 mi East 17.3 mph 25.3 mph N/A   Clear
12:35 PM 69.8 °F 51.8 °F 53% 30.25 in 10.0 mi ENE 16.1 mph 25.3 mph N/A   Scattered Clouds
12:55 PM 68.0 °F 50.0 °F 52% 30.25 in 10.0 mi East 19.6 mph 23.0 mph N/A   Scattered Clouds
1:15 PM 68.0 °F 50.0 °F 52% 30.24 in 10.0 mi East 13.8 mph 21.9 mph N/A   Scattered Clouds
1:35 PM 68.0 °F 50.0 °F 52% 30.24 in 10.0 mi ENE 13.8 mph 21.9 mph N/A   Clear
1:55 PM 68.0 °F 50.0 °F 52% 30.23 in 10.0 mi East 19.6 mph 24.2 mph N/A   Clear
2:15 PM 69.8 °F 50.0 °F 49% 30.23 in 10.0 mi ENE 12.7 mph 25.3 mph N/A   Clear
2:35 PM 69.8 °F 48.2 °F 46% 30.22 in 10.0 mi ENE 19.6 mph 25.3 mph N/A   Clear
2:55 PM 69.8 °F 48.2 °F 46% 30.21 in 10.0 mi East 16.1 mph 21.9 mph N/A   Clear
3:15 PM 68.0 °F 46.4 °F 46% 30.21 in 10.0 mi ENE 16.1 mph 26.5 mph N/A   Clear
3:35 PM 68.0 °F 46.4 °F 46% 30.21 in 10.0 mi ENE 20.7 mph 27.6 mph N/A   Clear
3:55 PM 68.0 °F 44.6 °F 43% 30.21 in 10.0 mi ENE 18.4 mph 29.9 mph N/A   Clear
4:15 PM 66.2 °F 44.6 °F 46% 30.21 in 10.0 mi ENE 17.3 mph 21.9 mph N/A   Clear
4:35 PM 66.2 °F 44.6 °F 46% 30.21 in 10.0 mi ENE 15.0 mph 24.2 mph N/A   Clear
4:55 PM 64.4 °F 46.4 °F 52% 30.21 in 10.0 mi East 16.1 mph 27.6 mph N/A   Clear
5:15 PM 62.6 °F 44.6 °F 52% 30.22 in 10.0 mi East 16.1 mph 21.9 mph N/A   Clear
5:35 PM 62.6 °F 44.6 °F 52% 30.23 in 10.0 mi East 16.1 mph 24.2 mph N/A   Clear
5:55 PM 60.8 °F 44.6 °F 55% 30.23 in 10.0 mi ENE 17.3 mph 24.2 mph N/A   Clear
6:15 PM 60.8 °F 42.8 °F 52% 30.23 in 10.0 mi East 13.8 mph 24.2 mph N/A   Clear
6:35 PM 59.0 °F 42.8 °F 55% 30.23 in 10.0 mi ENE 13.8 mph 26.5 mph N/A   Clear
6:55 PM 59.0 °F 41.0 °F 51% 30.23 in 10.0 mi ENE 11.5 mph 23.0 mph N/A   Clear
7:15 PM 57.2 °F 41.0 °F 55% 30.23 in 10.0 mi ENE 12.7 mph 18.4 mph N/A   Clear
7:35 PM 57.2 °F 42.8 °F 59% 30.24 in 10.0 mi ENE 9.2 mph 21.9 mph N/A   Clear
7:55 PM 55.4 °F 42.8 °F 63% 30.24 in 10.0 mi ENE 8.1 mph - N/A   Clear
8:15 PM 55.4 °F 42.8 °F 63% 30.24 in 10.0 mi East 11.5 mph 16.1 mph N/A   Clear
8:35 PM 55.4 °F 42.8 °F 63% 30.25 in 10.0 mi ENE 8.1 mph 16.1 mph N/A   Scattered Clouds
8:55 PM 55.4 °F 44.6 °F 67% 30.25 in 10.0 mi ENE 8.1 mph - N/A   Scattered Clouds
9:15 PM 53.6 °F 44.6 °F 72% 30.25 in 10.0 mi NE 10.4 mph 16.1 mph N/A   Scattered Clouds
9:35 PM 53.6 °F 44.6 °F 72% 30.25 in 10.0 mi NE 6.9 mph - N/A   Scattered Clouds
9:55 PM 53.6 °F 44.6 °F 72% 30.25 in 10.0 mi ENE 8.1 mph - N/A   Clear
10:15 PM 51.8 °F 44.6 °F 76% 30.25 in 10.0 mi ENE 10.4 mph 19.6 mph N/A   Clear
10:35 PM 51.8 °F 44.6 °F 76% 30.25 in 10.0 mi ENE 12.7 mph 17.3 mph N/A   Clear
10:55 PM 51.8 °F 44.6 °F 76% 30.24 in 10.0 mi NE 8.1 mph - N/A   Scattered Clouds
11:15 PM 51.8 °F 46.4 °F 82% 30.23 in 10.0 mi NE 8.1 mph - N/A   Mostly Cloudy
11:35 PM 51.8 °F 46.4 °F 82% 30.24 in 10.0 mi ENE 6.9 mph - N/A   Overcast
11:55 PM 51.8 °F 46.4 °F 82% 30.23 in 10.0 mi NE 9.2 mph - N/A   Overcast